Hayase Maru — JD2583 — position and weather

sailwx.info

Track history (hours):
 
Tides and Currents Weather Stations Pressure Air Temp Water Temp Dewpoint Dewpoint Depression Visibility Wind Speed Wind Dir Waves Ship Positions

Hayase Maru

Last reported at 2014-Oct-22 21:33 UTC. Time now 2014-Oct-22 22:34 UTC.
Position N 34°07' E 135°00'.

Length 73 m; draft 4.1 m.

Type: Ship. MMSI: 431000395.

Date/timePositionNaut miles runAvg speedWind from/ knotsBaromVisibWave heightAir tempDewpointWater temp
2014-Oct-22 21:33N 34°07' E 135°00'238 9.0
2014-Oct-21 19:07N 35°07' E 139°40'5 9.9
2014-Oct-21 18:33N 35°11' E 139°45'9 9.4
2014-Oct-21 17:34N 35°20' E 139°43'6 5.9
2014-Oct-21 16:33N 35°23' E 139°49'3 2.5
2014-Oct-21 15:28N 35°22' E 139°51'0 0.0
2014-Oct-21 14:28N 35°22' E 139°51'0 0.0
2014-Oct-21 13:28N 35°22' E 139°51'0 0.1
2014-Oct-21 12:31N 35°22' E 139°51'0 0.0
2014-Oct-21 11:28N 35°22' E 139°51'0 0.0
2014-Oct-21 10:31N 35°22' E 139°51'0 0.0
2014-Oct-21 09:28N 35°21' E 139°51'0 0.0
2014-Oct-21 08:13N 35°22' E 139°51'0 0.0
2014-Oct-21 06:32N 35°21' E 139°51'10 9.8
2014-Oct-21 05:32N 35°31' E 139°53'8 2.5
2014-Oct-21 02:27N 35°37' E 139°58'13 1.6
2014-Oct-20 18:33N 35°26' E 139°51'5 0.5
2014-Oct-20 09:04N 35°21' E 139°51'1 2.9
2014-Oct-20 08:33N 35°22' E 139°50'1312.4
2014-Oct-20 07:32N 35°35' E 139°51'1 0.1
2014-Oct-19 22:33N 35°36' E 139°51'1 0.3
2014-Oct-19 19:33N 35°35' E 139°52'1 0.1
2014-Oct-19 05:33N 35°34' E 139°52'1110.9
2014-Oct-19 04:33N 35°24' E 139°46'1010.5
2014-Oct-19 03:33N 35°14' E 139°47'  
2014-Oct-15 18:33N 34°04' E 134°60'1312.5
2014-Oct-15 17:32N 34°16' E 134°58'1212.3
2014-Oct-15 16:33N 34°28' E 135°01'9 7.7
2014-Oct-15 15:22N 34°36' E 134°56'7 0.5
2014-Oct-15 02:11N 34°42' E 134°52'6 8.9
2014-Oct-15 01:33N 34°37' E 134°55'1212.5
2014-Oct-15 00:33N 34°36' E 135°10'1312.5
2014-Oct-14 23:33N 34°35' E 135°26'2 0.9
2014-Oct-14 21:32N 34°34' E 135°27'0 0.0
2014-Oct-14 20:32N 34°34' E 135°27'0 0.0
2014-Oct-14 19:32N 34°34' E 135°27'0 0.5
2014-Oct-14 18:33N 34°34' E 135°27'0 0.0
2014-Oct-14 13:24N 34°34' E 135°27'0 0.1
2014-Oct-14 12:33N 34°35' E 135°27'10 9.6
2014-Oct-14 11:33N 34°35' E 135°15'1211.8
2014-Oct-14 10:33N 34°37' E 135°01'12810.6
2014-Oct-13 22:26N 34°09' E 132°30'4 1.3
2014-Oct-13 19:12N 34°13' E 132°30'0 0.1
2014-Oct-13 18:33N 34°13' E 132°31'0 0.0
2014-Oct-13 17:15N 34°13' E 132°30'0 0.1
2014-Oct-13 16:27N 34°13' E 132°31'0 0.0
2014-Oct-13 15:21N 34°13' E 132°31'0 0.0
2014-Oct-13 14:18N 34°13' E 132°31'0 0.0
2014-Oct-13 08:30N 34°13' E 132°30'0 0.0
2014-Oct-13 07:18N 34°13' E 132°30'0 0.0
2014-Oct-13 05:27N 34°13' E 132°30'0 0.0
2014-Oct-13 04:15N 34°13' E 132°30'0 0.0
2014-Oct-13 02:33N 34°13' E 132°30'0 0.1
2014-Oct-13 01:33N 34°13' E 132°30'0 0.0
2014-Oct-12 23:27N 34°13' E 132°30'  
Track history (hours):
 
Tides and Currents Weather Stations Pressure Air Temp Water Temp Dewpoint Dewpoint Depression Visibility Wind Speed Wind Dir Waves Ship Positions

Hayase Maru

Last reported at 2014-Oct-22 21:33 UTC. Time now 2014-Oct-22 22:34 UTC.
Position N 34°07' E 135°00'.

Length 73 m; draft 4.1 m.

Type: Ship. MMSI: 431000395.

Date/timePositionNaut miles runAvg speedWind from/ knotsBaromVisibWave heightAir tempDewpointWater temp
2014-Oct-22 21:33N 34°07' E 135°00'238 9.0
2014-Oct-21 19:07N 35°07' E 139°40'5 9.9
2014-Oct-21 18:33N 35°11' E 139°45'9 9.4
2014-Oct-21 17:34N 35°20' E 139°43'6 5.9
2014-Oct-21 16:33N 35°23' E 139°49'3 2.5
2014-Oct-21 15:28N 35°22' E 139°51'0 0.0
2014-Oct-21 14:28N 35°22' E 139°51'0 0.0
2014-Oct-21 13:28N 35°22' E 139°51'0 0.1
2014-Oct-21 12:31N 35°22' E 139°51'0 0.0
2014-Oct-21 11:28N 35°22' E 139°51'0 0.0
2014-Oct-21 10:31N 35°22' E 139°51'0 0.0
2014-Oct-21 09:28N 35°21' E 139°51'0 0.0
2014-Oct-21 08:13N 35°22' E 139°51'0 0.0
2014-Oct-21 06:32N 35°21' E 139°51'10 9.8
2014-Oct-21 05:32N 35°31' E 139°53'8 2.5
2014-Oct-21 02:27N 35°37' E 139°58'13 1.6
2014-Oct-20 18:33N 35°26' E 139°51'5 0.5
2014-Oct-20 09:04N 35°21' E 139°51'1 2.9
2014-Oct-20 08:33N 35°22' E 139°50'1312.4
2014-Oct-20 07:32N 35°35' E 139°51'1 0.1
2014-Oct-19 22:33N 35°36' E 139°51'1 0.3
2014-Oct-19 19:33N 35°35' E 139°52'1 0.1
2014-Oct-19 05:33N 35°34' E 139°52'1110.9
2014-Oct-19 04:33N 35°24' E 139°46'1010.5
2014-Oct-19 03:33N 35°14' E 139°47'  
2014-Oct-15 18:33N 34°04' E 134°60'1312.5
2014-Oct-15 17:32N 34°16' E 134°58'1212.3
2014-Oct-15 16:33N 34°28' E 135°01'9 7.7
2014-Oct-15 15:22N 34°36' E 134°56'7 0.5
2014-Oct-15 02:11N 34°42' E 134°52'6 8.9
2014-Oct-15 01:33N 34°37' E 134°55'1212.5
2014-Oct-15 00:33N 34°36' E 135°10'1312.5
2014-Oct-14 23:33N 34°35' E 135°26'2 0.9
2014-Oct-14 21:32N 34°34' E 135°27'0 0.0
2014-Oct-14 20:32N 34°34' E 135°27'0 0.0
2014-Oct-14 19:32N 34°34' E 135°27'0 0.5
2014-Oct-14 18:33N 34°34' E 135°27'0 0.0
2014-Oct-14 13:24N 34°34' E 135°27'0 0.1
2014-Oct-14 12:33N 34°35' E 135°27'10 9.6
2014-Oct-14 11:33N 34°35' E 135°15'1211.8
2014-Oct-14 10:33N 34°37' E 135°01'12810.6
2014-Oct-13 22:26N 34°09' E 132°30'4 1.3
2014-Oct-13 19:12N 34°13' E 132°30'0 0.1
2014-Oct-13 18:33N 34°13' E 132°31'0 0.0
2014-Oct-13 17:15N 34°13' E 132°30'0 0.1
2014-Oct-13 16:27N 34°13' E 132°31'0 0.0
2014-Oct-13 15:21N 34°13' E 132°31'0 0.0
2014-Oct-13 14:18N 34°13' E 132°31'0 0.0
2014-Oct-13 08:30N 34°13' E 132°30'0 0.0
2014-Oct-13 07:18N 34°13' E 132°30'0 0.0
2014-Oct-13 05:27N 34°13' E 132°30'0 0.0
2014-Oct-13 04:15N 34°13' E 132°30'0 0.0
2014-Oct-13 02:33N 34°13' E 132°30'0 0.1
2014-Oct-13 01:33N 34°13' E 132°30'0 0.0
2014-Oct-12 23:27N 34°13' E 132°30'  

Dump ship's entire track history